Lebanon, Oregon
Current Conditions -  °F | °C
As of 10:55 AM on Sunday 23 Nov 2014 (Local Time) from KCVO Reporting Station
Broken Clouds Broken Clouds  
Wind Chill: 10°   Ceiling: 3600
Heat Index: 10°   Visibility: 10mi
Dew Point:   Wind: 17mph
Humidity: 87%   Direction: 180°S
Pressure: 30.34"   Gusts: 23mph
Location:  44.54°N, 122.9°W
Report Text: KCVO 231855Z AUTO 18015G20KT 10SM BKN036 10/08 A3034 RMK AO1
Loading
Personal Weather Stations






























Interactive Weather Map New forecast layout! Learn more

10-Day Weather Forecast

Advertisements
Track Severe Weather on mobile